Time;durP1;ratioP1;P1;durP2;ratioP2;P2;SDS_P1;SDS_P2;PMS_P1;PMS_P2;Temp;Humidity;BMP_temperature;BMP_pressure;BME280_temperature;BME280_humidity;BME280_pressure;Samples;Min_cycle;Max_cycle;Signal;HPM_P1;HPM_P2
2022/11/19 00:00:11;;;;;;;5.60;4.50;;;;;;;7.96;100.00;95673.77;107877;1269;59658;-75
2022/11/19 00:03:00;;;;;;;5.70;4.50;;;;;;;7.94;100.00;95668.52;107830;1268;73109;-74
2022/11/19 00:05:29;;;;;;;5.20;4.30;;;;;;;7.95;100.00;95664.98;107860;1259;69667;-74
2022/11/19 00:07:57;;;;;;;6.30;4.30;;;;;;;7.94;100.00;95662.80;107778;1268;69485;-74
2022/11/19 00:10:26;;;;;;;4.70;3.70;;;;;;;7.97;100.00;95658.95;107829;1269;59713;-74
2022/11/19 00:12:55;;;;;;;4.70;3.10;;;;;;;8.00;100.00;95655.04;107819;1269;59681;-75
2022/11/19 00:15:24;;;;;;;3.60;2.70;;;;;;;7.98;100.00;95659.66;107820;1269;70857;-74
2022/11/19 00:17:53;;;;;;;2.60;2.00;;;;;;;8.02;100.00;95663.68;107812;1269;68387;-75
2022/11/19 00:20:22;;;;;;;3.10;2.60;;;;;;;8.10;100.00;95663.13;107734;1270;69940;-75
2022/11/19 00:22:55;;;;;;;3.80;2.20;;;;;;;8.12;100.00;95670.56;107842;1269;59728;-75
2022/11/19 00:25:26;;;;;;;3.00;2.00;;;;;;;8.13;100.00;95678.81;107914;1264;59765;-75
2022/11/19 00:27:56;;;;;;;2.80;2.00;;;;;;;8.15;100.00;95685.24;107893;1270;71230;-75
2022/11/19 00:30:25;;;;;;;2.50;2.20;;;;;;;8.23;100.00;95689.05;107842;1268;68866;-75
2022/11/19 00:33:14;;;;;;;2.70;2.10;;;;;;;8.21;100.00;95693.54;107799;1269;68640;-75
2022/11/19 00:35:42;;;;;;;2.50;1.90;;;;;;;8.27;100.00;95698.88;107761;1269;59745;-75
2022/11/19 00:38:11;;;;;;;2.30;1.90;;;;;;;8.32;100.00;95695.45;107870;1269;59710;-75
2022/11/19 00:40:41;;;;;;;2.20;1.70;;;;;;;8.37;100.00;95696.73;107878;1263;70791;-75
2022/11/19 00:45:57;;;;;;;2.00;1.70;;;;;;;8.42;100.00;95710.09;107764;1270;69290;-75
2022/11/19 00:48:26;;;;;;;2.40;2.00;;;;;;;8.43;100.00;95712.19;107759;1263;59709;-74
2022/11/19 00:50:55;;;;;;;2.80;1.90;;;;;;;8.45;100.00;95720.50;107822;1270;59787;-75
2022/11/19 00:53:25;;;;;;;2.30;1.80;;;;;;;8.44;100.00;95723.11;107866;1269;71448;-75
2022/11/19 00:55:54;;;;;;;2.70;2.10;;;;;;;8.46;100.00;95727.75;107834;1268;68122;-75
2022/11/19 00:58:22;;;;;;;3.40;2.20;;;;;;;8.44;100.00;95736.09;107744;1268;69140;-75
2022/11/19 01:00:52;;;;;;;2.50;2.10;;;;;;;8.44;100.00;95740.29;107818;1269;59781;-75
2022/11/19 01:03:23;;;;;;;2.50;1.80;;;;;;;8.43;100.00;95753.34;107777;1269;59674;-75
2022/11/19 01:05:52;;;;;;;2.10;1.90;;;;;;;8.40;100.00;95757.99;107820;1270;71543;-75
2022/11/19 01:08:21;;;;;;;2.60;2.30;;;;;;;8.37;100.00;95762.37;107792;1266;69296;-75
2022/11/19 01:10:50;;;;;;;2.40;2.00;;;;;;;8.35;100.00;95771.90;107761;1263;69329;-75
2022/11/19 01:13:34;;;;;;;2.90;2.10;;;;;;;8.34;100.00;95779.46;107782;1271;59749;-74
2022/11/19 01:16:13;;;;;;;3.30;2.60;;;;;;;8.27;100.00;95801.10;107825;1267;60198;-75
2022/11/19 01:18:45;;;;;;;4.30;2.90;;;;;;;8.21;100.00;95806.73;107772;1269;69970;-75
2022/11/19 01:21:14;;;;;;;4.50;3.10;;;;;;;8.10;100.00;95823.75;107846;1270;69819;-75
2022/11/19 01:23:43;;;;;;;3.80;2.60;;;;;;;7.99;100.00;95826.15;107755;1269;69902;-75
2022/11/19 01:26:13;;;;;;;3.70;2.50;;;;;;;7.88;100.00;95838.88;107756;1270;59697;-75
2022/11/19 01:28:43;;;;;;;4.70;3.10;;;;;;;7.78;100.00;95841.14;107718;1268;59695;-75
2022/11/19 01:31:14;;;;;;;;;;;;;;;7.68;100.00;95841.80;107848;1270;70763;-75
2022/11/19 01:33:43;;;;;;;;;;;;;;;7.61;100.00;95845.34;107844;1269;69171;-75
2022/11/19 01:36:17;;;;;;;;;;;;;;;7.54;100.00;95851.85;107808;1270;69116;-76
2022/11/19 01:38:53;;;;;;;;;;;;;;;7.38;100.00;95865.36;107764;1269;59693;-75
2022/11/19 01:41:30;;;;;;;;;;;;;;;7.34;100.00;95865.34;107830;1270;59694;-76
2022/11/19 01:43:58;;;;;;;;;;;;;;;7.27;100.00;95870.66;107656;1269;71423;-76
2022/11/19 01:46:29;;;;;;;;;;;;;;;7.19;100.00;95879.13;107864;1269;69189;-75
2022/11/19 01:49:01;;;;;;;;;;;;;;;7.15;100.00;95886.90;107760;1266;69349;-75
2022/11/19 01:51:36;;;;;;;;;;;;;;;7.12;100.00;95891.25;107754;1265;59709;-76
2022/11/19 01:54:19;;;;;;;;;;;;;;;7.09;100.00;95905.38;107584;1266;59741;-75
2022/11/19 01:56:48;;;;;;;;;;;;;;;7.03;100.00;95919.63;107824;1269;71404;-77
2022/11/19 01:59:17;;;;;;;;;;;;;;;6.95;100.00;95920.40;107793;1269;69174;-76
2022/11/19 02:01:47;;;;;;;;;;;;;;;6.84;100.00;95924.45;107559;1270;69264;-76
2022/11/19 02:04:16;;;;;;;;;;;;;;;6.83;100.00;95933.67;107787;1269;59852;-76
2022/11/19 02:06:47;;;;;;;;;;;;;;;6.81;100.00;95949.96;107856;1270;59637;-76
2022/11/19 02:09:16;;;;;;;;;;;;;;;6.74;99.92;95957.09;107912;1268;71216;-76
2022/11/19 02:12:11;;;;;;;;;;;;;;;6.62;99.43;95966.17;107874;1270;69169;-76
2022/11/19 02:14:57;;;;;;;;;;;;;;;6.49;98.69;95968.79;107792;1269;69372;-76
2022/11/19 02:17:45;;;;;;;;;;;;;;;6.32;96.47;95976.39;107791;1269;59712;-76
2022/11/19 02:20:29;;;;;;;;;;;;;;;6.15;95.80;95987.17;107774;1269;59658;-76
2022/11/19 02:23:14;;;;;;;;;;;;;;;5.99;96.88;96010.08;107811;1269;71464;-76
2022/11/19 02:25:49;;;;;;;;;;;;;;;5.92;97.69;96030.11;107768;1270;69181;-76
2022/11/19 02:28:31;;;;;;;;;;;;;;;5.85;97.79;96039.41;107843;1270;69926;-77
2022/11/19 02:31:05;;;;;;;;;;;;;;;5.77;98.37;96050.22;107833;1269;59724;-77
2022/11/19 02:33:41;;;;;;;;;;;;;;;5.67;99.49;96060.65;107887;1270;59747;-76
2022/11/19 02:36:30;;;;;;;;;;;;;;;5.65;99.26;96067.58;107925;1269;71414;-77
2022/11/19 02:38:59;;;;;;;;;;;;;;;5.58;99.24;96075.47;107893;1269;69057;-75
2022/11/19 02:41:32;;;;;;;;;;;;;;;5.52;99.09;96084.76;107867;1270;68486;-76
2022/11/19 02:47:11;;;;;;;;;;;;;;;5.49;99.63;96112.46;107875;1270;59715;-75
2022/11/19 02:49:43;;;;;;;;;;;;;;;5.40;99.00;96117.98;107890;1270;71513;-75
2022/11/19 02:52:13;;;;;;;;;;;;;;;5.39;98.72;96132.39;107929;1269;69158;-76
2022/11/19 02:54:43;;;;;;;;;;;;;;;5.39;98.95;96138.64;107895;1268;68472;-77
2022/11/19 02:57:12;;;;;;;;;;;;;;;5.34;98.96;96146.69;107901;1269;59698;-75
2022/11/19 03:05:25;;;;;;;;;;;;;;;5.25;99.27;96182.61;107857;1269;68336;-75
2022/11/19 03:07:55;;;;;;;;;;;;;;;5.22;98.81;96186.13;107870;1268;69284;-75
2022/11/19 03:10:28;;;;;;;;;;;;;;;5.20;98.55;96193.73;107866;1266;59732;-75
2022/11/19 03:19:03;;;;;;;;;;;;;;;5.02;98.06;96215.44;107892;1269;68586;-75
2022/11/19 03:21:36;;;;;;;;;;;;;;;4.95;97.46;96220.30;107842;1268;68557;-75
2022/11/19 03:24:17;;;;;;;;;;;;;;;4.87;97.49;96230.34;107895;1269;59772;-75
2022/11/19 03:26:57;;;;;;;;;;;;;;;4.83;98.03;96250.80;107811;1270;59679;-75
2022/11/19 03:29:31;;;;;;;;;;;;;;;4.78;98.06;96259.96;107766;1270;70660;-75
2022/11/19 03:32:05;;;;;;;;;;;;;;;4.69;97.93;96267.13;107743;1269;69173;-75
2022/11/19 03:34:35;;;;;;;;;;;;;;;4.64;97.56;96275.57;107742;1269;69356;-75
2022/11/19 03:37:06;;;;;;;;;;;;;;;4.63;97.92;96281.32;107778;1269;59840;-75
2022/11/19 03:39:35;;;;;;;;;;;;;;;4.62;97.97;96291.79;107758;1264;59715;-75
2022/11/19 03:42:06;;;;;;;;;;;;;;;4.58;98.17;96303.04;107867;1270;70843;-75
2022/11/19 03:44:40;;;;;;;;;;;;;;;4.55;98.24;96305.68;107958;1273;68852;-75
2022/11/19 03:47:20;;;;;;;;;;;;;;;4.53;98.21;96312.36;107929;1268;69288;-75
2022/11/19 03:49:58;;;;;;;;;;;;;;;4.47;97.56;96317.04;107945;1270;59724;-75
2022/11/19 03:52:28;;;;;;;;;;;;;;;4.44;97.96;96318.33;107889;1270;59720;-75
2022/11/19 03:54:57;;;;;;;;;;;;;;;4.34;97.28;96319.12;107739;1270;71387;-74
2022/11/19 03:57:26;;;;;;;;;;;;;;;4.35;97.83;96325.64;107826;1269;68411;-74
2022/11/19 03:59:55;;;;;;;;;;;;;;;4.33;98.14;96326.05;107869;1271;68537;-75
2022/11/19 04:02:25;;;;;;;;;;;;;;;4.31;97.83;96323.14;107841;1273;59785;-75
2022/11/19 04:04:53;;;;;;;;;;;;;;;4.25;98.38;96320.61;107891;1270;59722;-74
2022/11/19 04:07:23;;;;;;;;;;;;;;;4.21;98.62;96322.23;107838;1269;70961;-75
2022/11/19 04:09:51;;;;;;;;;;;;;;;4.17;98.71;96327.31;107863;1269;68502;-75
2022/11/19 04:12:21;;;;;;;;;;;;;;;4.11;99.20;96339.59;107801;1268;68690;-75
2022/11/19 04:14:50;;;;;;;;;;;;;;;4.09;99.18;96347.30;107844;1271;59703;-75
2022/11/19 04:17:20;;;;;;;;;;;;;;;4.06;99.00;96352.29;107843;1270;59700;-75
2022/11/19 04:19:48;;;;;;;;;;;;;;;4.04;99.36;96358.98;107854;1270;70620;-74
2022/11/19 04:22:17;;;;;;;;;;;;;;;3.98;99.90;96368.15;107691;1270;67741;-75
2022/11/19 04:24:46;;;;;;;;;;;;;;;3.96;99.94;96374.16;107834;1266;68360;-76
2022/11/19 04:27:15;;;;;;;;;;;;;;;3.96;99.37;96384.98;107859;1270;59624;-74
2022/11/19 04:29:44;;;;;;;;;;;;;;;3.96;99.53;96392.42;107883;1270;59683;-75
2022/11/19 04:32:13;;;;;;;;;;;;;;;3.96;99.30;96402.73;107842;1270;71855;-75
2022/11/19 04:34:42;;;;;;;;;;;;;;;3.97;99.62;96409.24;107813;1269;67410;-75
2022/11/19 04:37:11;;;;;;;;;;;;;;;3.94;100.00;96423.91;107763;1270;68543;-74
2022/11/19 04:39:40;;;;;;;;;;;;;;;3.92;100.00;96428.74;107835;1261;59800;-74
2022/11/19 04:42:09;;;;;;;;;;;;;;;3.93;100.00;96437.79;107872;1269;59690;-75
2022/11/19 04:44:38;;;;;;;;;;;;;;;3.92;100.00;96441.83;107887;1269;71881;-75
2022/11/19 04:47:06;;;;;;;;;;;;;;;3.93;99.95;96446.91;107804;1269;68443;-75
2022/11/19 04:49:35;;;;;;;;;;;;;;;3.94;99.79;96451.52;107817;1269;69243;-75
2022/11/19 04:52:04;;;;;;;;;;;;;;;3.95;99.55;96458.33;107773;1269;60100;-75
2022/11/19 04:54:32;;;;;;;;;;;;;;;3.96;99.41;96463.26;107847;1270;59737;-75
2022/11/19 04:57:02;;;;;;;;;;;;;;;3.97;99.62;96460.47;107859;1268;71538;-75
2022/11/19 04:59:31;;;;;;;;;;;;;;;3.97;99.36;96463.57;107809;1268;68260;-75
2022/11/19 05:01:59;;;;;;;;;;;;;;;3.94;99.62;96462.23;107808;1273;69194;-75
2022/11/19 05:04:28;;;;;;;;;;;;;;;3.92;99.22;96465.95;107785;1270;59710;-75
2022/11/19 05:06:57;;;;;;;;;;;;;;;3.89;99.38;96474.25;107819;1270;59658;-74
2022/11/19 05:09:25;;;;;;;;;;;;;;;3.86;99.62;96476.01;107516;1277;70663;-75
2022/11/19 05:11:54;;;;;;;;;;;;;;;3.81;99.87;96484.55;107866;1266;68414;-76
2022/11/19 05:14:23;;;;;;;;;;;;;;;3.75;100.00;96488.16;107844;1269;69165;-75
2022/11/19 05:16:57;;;;;;;;;;;;;;;3.71;100.00;96491.54;107798;1270;59698;-75
2022/11/19 05:19:26;;;;;;;;;;;;;;;3.67;100.00;96497.66;107763;1270;59726;-76
2022/11/19 05:21:54;;;;;;;;;;;;;;;3.66;100.00;96507.67;107812;1268;72031;-76
2022/11/19 05:24:23;;;;;;;;;;;;;;;3.68;100.00;96508.63;107795;1270;69916;-76
2022/11/19 05:26:51;;;;;;;;;;;;;;;3.69;100.00;96505.77;107836;1266;68496;-74
2022/11/19 05:29:20;;;;;;;;;;;;;;;3.70;99.98;96510.39;107792;1269;59727;-75
2022/11/19 05:31:49;;;;;;;;;;;;;;;3.69;100.00;96517.84;107822;1269;59780;-77
2022/11/19 05:34:17;;;;;;;;;;;;;;;3.69;100.00;96523.33;108044;1268;70394;-76
2022/11/19 05:36:46;;;;;;;;;;;;;;;3.69;100.00;96538.14;107833;1270;69065;-76
2022/11/19 05:39:14;;;;;;;;;;;;;;;3.69;100.00;96542.66;107858;1268;68449;-76
2022/11/19 05:41:49;;;;;;;;;;;;;;;3.68;100.00;96554.98;107855;1271;59700;-75
2022/11/19 05:44:20;;;;;;;;;;;;;;;3.69;100.00;96561.94;107799;1270;59708;-76
2022/11/19 05:46:48;;;;;;;;;;;;;;;3.69;99.80;96570.39;107816;1269;71862;-76
2022/11/19 05:49:17;;;;;;;;;;;;;;;3.68;99.58;96577.02;107884;1269;69985;-76
2022/11/19 05:51:46;;;;;;;;;;;;;;;3.68;99.08;96593.17;107809;1268;69929;-77
2022/11/19 05:54:14;;;;;;;;;;;;;;;3.69;98.80;96606.76;107787;1265;59677;-76
2022/11/19 05:56:43;;;;;;;;;;;;;;;3.70;99.07;96618.09;107895;1267;59710;-76
2022/11/19 05:59:11;;;;;;;;;;;;;;;3.70;99.45;96624.14;107848;1268;72056;-76
2022/11/19 06:01:40;;;;;;;;;;;;;;;3.69;99.43;96635.21;107839;1269;68545;-76
2022/11/19 06:04:09;;;;;;;;;;;;;;;3.67;99.75;96640.16;107849;1270;69141;-76
2022/11/19 06:06:38;;;;;;;;;;;;;;;3.65;99.88;96642.80;107856;1270;59691;-76
2022/11/19 06:09:07;;;;;;;;;;;;;;;3.64;100.00;96654.60;107878;1269;59699;-76
2022/11/19 06:11:49;;;;;;;;;;;;;;;3.64;100.00;96670.96;107775;1271;71210;-76
2022/11/19 06:14:20;;;;;;;;;;;;;;;3.62;100.00;96676.58;107894;1267;69173;-76
2022/11/19 06:16:53;;;;;;;;;;;;;;;3.62;100.00;96679.71;107822;1269;69077;-76
2022/11/19 06:19:23;;;;;;;;;;;;;;;3.63;100.00;96687.95;107864;1270;59704;-75
2022/11/19 06:21:52;;;;;;;;;;;;;;;3.64;100.00;96699.23;107886;1269;59746;-75
2022/11/19 06:24:20;;;;;;;;;;;;;;;3.66;99.86;96701.89;107863;1269;70465;-76
2022/11/19 06:26:49;;;;;;;;;;;;;;;3.70;99.78;96708.05;107879;1270;69177;-76
2022/11/19 06:29:18;;;;;;;;;;;;;;;3.85;100.00;96721.96;107861;1270;69273;-76
2022/11/19 06:31:46;;;;;;;;;;;;;;;3.93;99.94;96727.20;107813;1266;59764;-76
2022/11/19 06:34:15;;;;;;;;;;;;;;;3.97;99.38;96732.84;107902;1268;59700;-76
2022/11/19 06:36:43;;;;;;;;;;;;;;;3.94;98.11;96740.25;107887;1270;71885;-76
2022/11/19 06:39:17;;;;;;;;;;;;;;;3.91;97.75;96740.48;107835;1268;69069;-76
2022/11/19 06:41:47;;;;;;;;;;;;;;;3.93;98.71;96741.73;107886;1268;69181;-75
2022/11/19 06:44:16;;;;;;;;;;;;;;;3.95;98.17;96753.14;107892;1270;59747;-76
2022/11/19 06:46:44;;;;;;;;;;;;;;;3.89;97.13;96759.17;107871;1266;59718;-76
2022/11/19 06:49:12;;;;;;;;;;;;;;;3.83;97.03;96763.81;107750;1270;71248;-77
2022/11/19 06:51:47;;;;;;;;;;;;;;;3.75;96.33;96773.23;107922;1268;69185;-77
2022/11/19 06:54:15;;;;;;;;;;;;;;;3.65;95.97;96778.45;107827;1270;68692;-77
2022/11/19 06:56:47;;;;;;;;;;;;;;;3.51;96.46;96782.88;107822;1269;59797;-75
2022/11/19 06:59:15;;;;;;;;;;;;;;;3.44;96.85;96786.32;107851;1270;59758;-75
2022/11/19 07:01:44;;;;;;;;;;;;;;;3.39;97.19;96791.75;107844;1270;71701;-75
2022/11/19 07:04:13;;;;;;;;;;;;;;;3.35;97.08;96792.66;107866;1269;68347;-75
2022/11/19 07:06:41;;;;;;;;;;;;;;;3.35;97.63;96796.13;107847;1270;68383;-75
2022/11/19 07:09:10;;;;;;;;;;;;;;;3.36;97.97;96796.20;107848;1268;59755;-75
2022/11/19 07:11:38;;;;;;;;;;;;;;;3.36;97.93;96797.56;107881;1270;59754;-75
2022/11/19 07:14:07;;;;;;;;;;;;;;;3.38;97.78;96806.63;107404;1271;369361;-75
2022/11/19 07:16:35;;;;;;;;;;;;;;;3.42;97.70;96818.79;107897;1267;68249;-75
2022/11/19 07:19:05;;;;;;;;;;;;;;;3.46;97.66;96824.59;107791;1270;69757;-75
2022/11/19 07:21:34;;;;;;;;;;;;;;;3.49;97.20;96831.49;107731;1271;60075;-73
2022/11/19 07:24:06;;;;;;;;;;;;;;;3.53;96.74;96831.81;107839;1270;59672;-76
2022/11/19 07:26:35;;;;;;;;;;;;;;;3.56;96.49;96835.98;107912;1266;71911;-73
2022/11/19 07:29:05;;;;;;;;;;;;;;;3.58;96.18;96836.05;107864;1270;69016;-73
2022/11/19 07:31:33;;;;;;;;;;;;;;;3.63;96.21;96834.91;107798;1268;69081;-74
2022/11/19 07:34:04;;;;;;;;;;;;;;;3.69;95.88;96837.52;107704;1270;59752;-74
2022/11/19 07:36:33;;;;;;;;;;;;;;;3.75;96.34;96841.11;107698;1270;59765;-74
2022/11/19 07:39:02;;;;;;;;;;;;;;;3.80;95.82;96843.95;107917;1270;70559;-75
2022/11/19 07:44:18;;;;;;;;;;;;;;;3.91;94.98;96846.48;107911;1267;68941;-75
2022/11/19 07:46:46;;;;;;;;;;;;;;;4.00;94.73;96848.04;107945;1267;59759;-76
2022/11/19 07:49:15;;;;;;;;;;;;;;;4.10;94.25;96840.27;107787;1267;59716;-76
2022/11/19 07:51:44;;;;;;;;;;;;;;;4.20;94.41;96845.73;107726;1266;71369;-75
2022/11/19 07:54:13;;;;;;;;;;;;;;;4.25;92.42;96855.76;107826;1267;69215;-75
2022/11/19 07:56:42;;;;;;;;;;;;;;;4.30;92.88;96860.83;107851;1267;68456;-76
2022/11/19 07:59:11;;;;;;;;;;;;;;;4.36;91.96;96873.48;107860;1267;59695;-76
2022/11/19 08:01:40;;;;;;;;;;;;;;;4.41;91.34;96881.27;107701;1270;59768;-76
2022/11/19 08:04:10;;;;;;;;;;;;;;;4.49;91.53;96889.13;107768;1271;70571;-76
2022/11/19 08:06:40;;;;;;;;;;;;;;;4.59;92.45;96891.99;107764;1270;68207;-75
2022/11/19 08:09:09;;;;;;;;;;;;;;;4.73;92.38;96892.23;107879;1267;68460;-75
2022/11/19 08:11:39;;;;;;;;;;;;;;;4.86;90.63;96897.51;107909;1267;59783;-76
2022/11/19 08:14:07;;;;;;;;;;;;;;;4.94;88.30;96899.13;107850;1267;59690;-74
2022/11/19 08:19:22;;;;;;;;;;;;;;;5.13;87.35;96897.99;107800;1269;68671;-76
2022/11/19 08:21:51;;;;;;;;;;;;;;;5.15;86.94;96902.05;107655;1270;69654;-76
2022/11/19 08:24:19;;;;;;;;;;;;;;;5.19;84.02;96897.81;107862;1268;59732;-76
2022/11/19 08:26:49;;;;;;;;;;;;;;;5.30;84.88;96896.15;107891;1268;59772;-75
2022/11/19 08:29:19;;;;;;;;;;;;;;;5.38;85.91;96893.40;107806;1267;70426;-76
2022/11/19 08:31:47;;;;;;;;;;;;;;;5.92;87.87;96893.74;107681;1270;69159;-75
2022/11/19 08:34:16;;;;;;;;;;;;;;;6.67;82.15;96896.73;107831;1270;69077;-73
2022/11/19 08:36:45;;;;;;;;;;;;;;;7.48;78.48;96899.85;107864;1270;59652;-74
2022/11/19 08:39:15;;;;;;;;;;;;;;;8.37;73.11;96911.81;107902;1266;59713;-74
2022/11/19 08:44:34;;;;;;;;;;;;;;;9.86;66.12;96917.39;107752;1267;69679;-74
2022/11/19 08:47:03;;;;;;;;;;;;;;;10.62;63.36;96916.98;107795;1267;68664;-75
2022/11/19 08:49:31;;;;;;;;;;;;;;;10.77;62.94;96917.15;107898;1267;59696;-75
2022/11/19 08:51:59;;;;;;;;;;;;;;;10.74;62.95;96917.58;107893;1267;59661;-75
2022/11/19 08:54:28;;;;;;;;;;;;;;;10.85;61.63;96920.05;107674;1263;71322;-75
2022/11/19 08:56:56;;;;;;;;;;;;;;;10.76;62.82;96924.20;107877;1267;69194;-76
2022/11/19 08:59:25;;;;;;;;;;;;;;;10.50;64.60;96928.73;107889;1267;68349;-75
2022/11/19 09:01:53;;;;;;;;;;;;;;;10.25;65.17;96924.77;107805;1267;59727;-75
2022/11/19 09:04:21;;;;;;;;;;;;;;;9.98;66.60;96931.92;107915;1266;59727;-75
2022/11/19 09:06:50;;;;;;;;;;;;;;;9.59;65.12;96936.02;107869;1268;71391;-75
2022/11/19 09:09:19;;;;;;;;;;;;;;;9.25;66.84;96935.11;107791;1270;69856;-74
2022/11/19 09:11:47;;;;;;;;;;;;;;;8.65;68.10;96935.69;107962;1268;69128;-72
2022/11/19 09:14:16;;;;;;;;;;;;;;;8.32;70.03;96940.30;107849;1270;59721;-72
2022/11/19 09:16:45;;;;;;;;;;;;;;;7.76;72.35;96947.00;107911;1269;59779;-72
2022/11/19 09:19:13;;;;;;;;;;;;;;;7.60;73.93;96941.65;107895;1269;70376;-73
2022/11/19 09:21:41;;;;;;;;;;;;;;;7.75;73.82;96934.73;107769;1268;69075;-72
2022/11/19 09:24:10;;;;;;;;;;;;;;;7.64;73.61;96935.49;107773;1267;68640;-72
2022/11/19 09:26:38;;;;;;;;;;;;;;;7.46;74.98;96943.84;107833;1267;59737;-72
2022/11/19 09:29:07;;;;;;;;;;;;;;;7.30;76.07;96958.31;107825;1270;59701;-72
2022/11/19 09:31:36;;;;;;;;;;;;;;;7.18;77.26;96963.59;107864;1270;71890;-72
2022/11/19 09:34:04;;;;;;;;;;;;;;;6.98;76.43;96958.31;107880;1270;69145;-72
2022/11/19 09:36:32;;;;;;;;;;;;;;;6.72;77.75;96954.44;107731;1269;68781;-73
2022/11/19 09:39:02;;;;;;;;;;;;;;;6.73;77.75;96952.84;108017;1267;59789;-72
2022/11/19 09:41:31;;;;;;;;;;;;;;;7.04;77.36;96952.02;107827;1267;59708;-71
2022/11/19 09:44:11;;;;;;;;;;;;;;;7.33;75.80;96956.64;107741;1259;72014;-73
2022/11/19 09:46:40;;;;;;;;;;;;;;;7.57;74.51;96958.71;107747;1267;67237;-70
2022/11/19 09:49:15;;;;;;;;;;;;;;;7.58;72.93;96965.19;107666;1267;68687;-71
2022/11/19 09:51:49;;;;;;;;;;;;;;;7.67;71.74;96962.55;107706;1268;59701;-70
2022/11/19 09:54:18;;;;;;;;;;;;;;;7.67;71.15;96956.61;107809;1269;59648;-71
2022/11/19 09:56:50;;;;;;;;;;;;;;;7.80;70.81;96954.73;107717;1267;70417;-72
2022/11/19 09:59:24;;;;;;;;;;;;;;;7.91;71.06;96952.75;107887;1266;70120;-71
2022/11/19 10:01:52;;;;;;;;;;;;;;;7.89;70.28;96949.38;107622;1269;68772;-74
2022/11/19 10:04:23;;;;;;;;;;;;;;;7.91;70.23;96947.90;107786;1270;59779;-73
2022/11/19 10:07:01;;;;;;;;;;;;;;;7.88;70.08;96947.69;107696;1266;59779;-73
2022/11/19 10:09:49;;;;;;;;;;;;;;;7.92;70.15;96946.27;107920;1265;71283;-73
2022/11/19 10:12:18;;;;;;;;;;;;;;;7.89;70.10;96956.36;107900;1267;69065;-73
2022/11/19 10:14:46;;;;;;;;;;;;;;;7.77;69.74;96961.88;107866;1267;69180;-72
2022/11/19 10:17:14;;;;;;;;;;;;;;;7.61;70.50;96965.70;107962;1267;59692;-72
2022/11/19 10:19:46;;;;;;;;;;;;;;;7.64;70.92;96962.58;107870;1267;59701;-72
2022/11/19 10:22:34;;;;;;;;;;;;;;;7.70;71.29;96956.30;107835;1266;70704;-74
2022/11/19 10:25:13;;;;;;;;;;;;;;;7.68;70.70;96961.75;107773;1260;68307;-72
2022/11/19 10:27:54;;;;;;;;;;;;;;;7.64;70.36;96963.98;107668;1267;68378;-73
2022/11/19 10:30:24;;;;;;;;;;;;;;;7.51;70.96;96976.27;107805;1267;59630;-74
2022/11/19 10:33:01;;;;;;;;;;;;;;;7.46;71.74;96973.33;107892;1270;59716;-72
2022/11/19 10:35:32;;;;;;;;;;;;;;;7.35;71.58;96973.91;107944;1263;70778;-72
2022/11/19 10:38:03;;;;;;;;;;;;;;;7.47;71.88;96975.52;107918;1267;69679;-72
2022/11/19 10:40:43;;;;;;;;;;;;;;;7.47;70.95;96983.14;107946;1263;68782;-72
2022/11/19 10:43:21;;;;;;;;;;;;;;;7.46;70.02;96989.77;107869;1267;59765;-73
2022/11/19 10:45:51;;;;;;;;;;;;;;;7.43;70.89;96992.27;107795;1263;59722;-72
2022/11/19 10:48:23;;;;;;;;;;;;;;;7.33;71.33;96989.77;107838;1267;69458;-72
2022/11/19 10:50:54;;;;;;;;;;;;;;;7.19;70.99;96990.02;107916;1267;68208;-71
2022/11/19 10:53:30;;;;;;;;;;;;;;;7.12;71.39;96991.71;107897;1267;69180;-71
2022/11/19 10:56:02;;;;;;;;;;;;;;;6.99;71.31;96989.79;107781;1267;59883;-72
2022/11/19 10:58:42;;;;;;;;;;;;;;;6.82;71.47;96988.43;107842;1266;59680;-71
2022/11/19 11:01:23;;;;;;;;;;;;;;;6.63;73.35;96987.95;107740;1267;70852;-71
2022/11/19 11:04:10;;;;;;;;;;;;;;;6.63;74.12;96990.65;107620;1266;68822;-72
2022/11/19 11:06:57;;;;;;;;;;;;;;;6.55;71.63;96993.30;107830;1269;69291;-72
2022/11/19 11:09:30;;;;;;;;;;;;;;;6.61;72.92;96990.16;107837;1267;59808;-71
2022/11/19 11:14:52;;;;;;;;;;;;;;;6.61;74.97;96988.75;107647;1269;71352;-71
2022/11/19 11:17:26;;;;;;;;;;;;;;;6.62;72.92;96990.45;107700;1267;69478;-70
2022/11/19 11:20:06;;;;;;;;;;;;;;;6.71;72.43;96994.05;107622;1266;69236;-71
2022/11/19 11:22:34;;;;;;;;;;;;;;;6.62;71.80;96994.04;107626;1268;59739;-70
2022/11/19 11:25:11;;;;;;;;;;;;;;;6.67;73.51;97003.31;107812;1265;59740;-70
2022/11/19 11:27:40;;;;;;;;;;;;;;;6.66;73.85;97007.14;107730;1270;72460;-71
2022/11/19 11:30:12;;;;;;;;;;;;;;;6.68;73.15;97002.88;107802;1266;68668;-71
2022/11/19 11:32:40;;;;;;;;;;;;;;;6.72;72.67;97001.92;107644;1265;69992;-71
2022/11/19 11:35:35;;;;;;;;;;;;;;;6.73;72.75;97001.13;107753;1270;59733;-70
2022/11/19 11:38:05;;;;;;;;;;;;;;;6.75;73.46;96998.41;107720;1266;59739;-70
2022/11/19 11:40:33;;;;;;;;;;;;;;;6.72;73.15;96998.59;107682;1269;70877;-70
2022/11/19 11:43:02;;;;;;;;;;;;;;;6.66;72.61;96998.47;107735;1269;68269;-71
2022/11/19 11:45:41;;;;;;;;;;;;;;;6.66;73.44;96993.80;107442;1270;69608;-71
2022/11/19 11:48:17;;;;;;;;;;;;;;;6.64;72.75;96986.64;107620;1269;59708;-71
2022/11/19 11:50:46;;;;;;;;;;;;;;;6.68;74.11;96988.14;107607;1269;59692;-71
2022/11/19 11:53:16;;;;;;;;;;;;;;;6.73;73.97;96990.42;107634;1266;71855;-71
2022/11/19 11:55:44;;;;;;;;;;;;;;;6.71;73.96;96988.98;107650;1269;68096;-71
2022/11/19 11:58:24;;;;;;;;;;;;;;;6.68;73.73;96991.09;107647;1270;68606;-71
2022/11/19 12:00:54;;;;;;;;;;;;;;;6.65;73.96;96988.52;107675;1265;59750;-71
2022/11/19 12:03:23;;;;;;;;;;;;;;;6.61;74.13;96996.00;107766;1269;59672;-70
2022/11/19 12:06:03;;;;;;;;;;;;;;;6.58;74.22;96993.63;107667;1269;71836;-71
2022/11/19 12:08:41;;;;;;;;;;;;;;;6.54;74.54;96993.87;107664;1266;69034;-72
2022/11/19 12:11:10;;;;;;;;;;;;;;;6.57;75.02;96996.23;107669;1269;70296;-70
2022/11/19 12:13:48;;;;;;;;;;;;;;;6.57;74.51;96997.99;107698;1270;59664;-71
2022/11/19 12:16:34;;;;;;;;;;;;;;;6.52;74.50;97000.92;107781;1268;59732;-71
2022/11/19 12:19:12;;;;;;;;;;;;;;;6.49;74.70;97000.94;107714;1269;70948;-71
2022/11/19 12:21:50;;;;;;;;;;;;;;;6.49;74.94;97003.04;107801;1263;69166;-71
2022/11/19 12:24:37;;;;;;;;;;;;;;;6.49;74.79;97008.91;107734;1267;69840;-71
2022/11/19 12:27:21;;;;;;;;;;;;;;;6.50;75.11;97014.88;107776;1270;59786;-71
2022/11/19 12:29:53;;;;;;;;;;;;;;;6.52;74.80;97014.10;107858;1263;59785;-71
2022/11/19 12:32:33;;;;;;;;;;;;;;;6.57;74.97;97021.39;107843;1266;71204;-71
2022/11/19 12:35:17;;;;;;;;;;;;;;;6.56;74.79;97018.34;107852;1266;69688;-71
2022/11/19 12:38:07;;;;;;;;;;;;;;;6.51;75.06;97012.59;107873;1263;69145;-71
2022/11/19 12:40:35;;;;;;;;;;;;;;;6.50;75.23;97018.17;107872;1262;59671;-71
2022/11/19 12:43:27;;;;;;;;;;;;;;;6.47;75.41;97023.09;107831;1267;59707;-71
2022/11/19 12:46:08;;;;;;;;;;;;;;;6.42;75.86;97029.74;107891;1267;71490;-71
2022/11/19 12:48:42;;;;;;;;;;;;;;;6.45;75.70;97029.21;107848;1263;69163;-71
2022/11/19 12:51:22;;;;;;;;;;;;;;;6.45;75.55;97027.81;107847;1267;68442;-71
2022/11/19 12:53:51;;;;;;;;;;;;;;;6.43;75.88;97034.25;107836;1266;59808;-71
2022/11/19 12:56:22;;;;;;;;;;;;;;;6.41;75.89;97042.10;107856;1263;59754;-71
2022/11/19 12:59:00;;;;;;;;;;;;;;;6.41;75.86;97050.05;107914;1266;71230;-71
2022/11/19 13:01:32;;;;;;;;;;;;;;;6.43;76.32;97060.70;107848;1267;68295;-71
2022/11/19 13:04:19;;;;;;;;;;;;;;;6.46;76.18;97059.64;107880;1267;69942;-71
2022/11/19 13:06:56;;;;;;;;;;;;;;;6.48;75.92;97067.14;107936;1267;59795;-71
2022/11/19 13:09:28;;;;;;;;;;;;;;;6.48;76.20;97069.75;107917;1266;59720;-71
2022/11/19 13:12:01;;;;;;;;;;;;;;;6.49;76.07;97069.64;107907;1267;70388;-71
2022/11/19 13:14:52;;;;;;;;;;;;;;;6.47;75.86;97065.48;107959;1264;69164;-71
2022/11/19 13:17:33;;;;;;;;;;;;;;;6.46;76.22;97074.54;107759;1267;69263;-71
2022/11/19 13:20:21;;;;;;;;;;;;;;;6.47;76.14;97072.73;107929;1267;59728;-71
2022/11/19 13:22:52;;;;;;;;;;;;;;;6.42;76.83;97070.08;107751;1264;59761;-71
2022/11/19 13:25:20;;;;;;;;;;;;;;;6.41;76.65;97076.71;107621;1268;71887;-70
2022/11/19 13:27:50;;;;;;;;;;;;;;;6.40;76.93;97077.64;107635;1270;69227;-71